Time;durP1;ratioP1;P1;durP2;ratioP2;P2;SDS_P1;SDS_P2;PMS_P1;PMS_P2;Temp;Humidity;BMP_temperature;BMP_pressure;BME280_temperature;BME280_humidity;BME280_pressure;Samples;Min_cycle;Max_cycle;Signal;HPM_P1;HPM_P2
2021/10/09 00:00:51;;;;;;;4.65;2.72;;;;;;;;;;4987689;28;20081;-58
2021/10/09 00:03:18;;;;;;;2.55;2.40;;;;;;;;;;4986947;28;20039;-57
2021/10/09 00:05:44;;;;;;;3.83;2.72;;;;;;;;;;4988952;28;20096;-59
2021/10/09 00:08:16;;;;;;;3.10;3.00;;;;;;;;;;4989388;28;20436;-58
2021/10/09 00:10:44;;;;;;;3.10;1.63;;;;;;;;;;4989381;28;20050;-57
2021/10/09 00:13:11;;;;;;;2.67;2.58;;;;;;;;;;4989370;28;20038;-57
2021/10/09 00:15:37;;;;;;;2.50;2.40;;;;;;;;;;4989526;28;20046;-57
2021/10/09 00:18:04;;;;;;;1.95;1.80;;;;;;;;;;4990100;28;20558;-58
2021/10/09 00:20:31;;;;;;;2.63;2.13;;;;;;;;;;4983858;28;20104;-58
2021/10/09 00:22:58;;;;;;;5.97;2.80;;;;;;;;;;4989788;28;20462;-58
2021/10/09 00:25:25;;;;;;;4.72;3.10;;;;;;;;;;4988100;28;20426;-58
2021/10/09 00:27:52;;;;;;;2.72;2.25;;;;;;;;;;4988884;28;20042;-58
2021/10/09 00:30:19;;;;;;;3.13;2.95;;;;;;;;;;4990847;28;20088;-57
2021/10/09 00:32:45;;;;;;;3.67;3.38;;;;;;;;;;4989622;28;20046;-58
2021/10/09 00:35:12;;;;;;;4.15;2.10;;;;;;;;;;4990319;28;20179;-57
2021/10/09 00:37:39;;;;;;;4.88;2.75;;;;;;;;;;4990442;28;20042;-57
2021/10/09 00:40:06;;;;;;;2.97;2.50;;;;;;;;;;4988357;28;20125;-57
2021/10/09 00:42:33;;;;;;;4.32;2.60;;;;;;;;;;4990253;28;20050;-57
2021/10/09 00:44:59;;;;;;;2.33;2.22;;;;;;;;;;4987187;28;20053;-57
2021/10/09 00:47:26;;;;;;;2.50;2.40;;;;;;;;;;4989683;28;20034;-57
2021/10/09 00:49:53;;;;;;;1.83;1.73;;;;;;;;;;4989052;28;20089;-57
2021/10/09 00:52:24;;;;;;;2.13;2.13;;;;;;;;;;4982958;28;20053;-57
2021/10/09 00:54:50;;;;;;;3.45;1.70;;;;;;;;;;4990134;28;20474;-58
2021/10/09 00:57:18;;;;;;;3.42;2.22;;;;;;;;;;4987076;28;20105;-57
2021/10/09 00:59:47;;;;;;;6.15;2.67;;;;;;;;;;4988500;28;20050;-57
2021/10/09 01:02:14;;;;;;;2.22;2.03;;;;;;;;;;4988326;28;20050;-57
2021/10/09 01:04:41;;;;;;;2.45;1.85;;;;;;;;;;4986706;28;20101;-57
2021/10/09 01:07:08;;;;;;;2.15;1.98;;;;;;;;;;4989940;28;20049;-57
2021/10/09 01:09:35;;;;;;;2.30;1.85;;;;;;;;;;4988488;28;20092;-57
2021/10/09 01:12:02;;;;;;;2.67;1.92;;;;;;;;;;4990043;28;20549;-57
2021/10/09 01:14:28;;;;;;;2.30;1.85;;;;;;;;;;4989408;28;20045;-58
2021/10/09 01:16:55;;;;;;;2.30;1.67;;;;;;;;;;4989142;28;20125;-57
2021/10/09 01:19:22;;;;;;;1.38;1.30;;;;;;;;;;4988910;28;20073;-57
2021/10/09 01:21:49;;;;;;;5.78;1.85;;;;;;;;;;4991544;28;20109;-57
2021/10/09 01:24:16;;;;;;;1.70;1.70;;;;;;;;;;4993358;28;20035;-57
2021/10/09 01:26:43;;;;;;;7.63;1.60;;;;;;;;;;4992885;28;20070;-57
2021/10/09 01:29:11;;;;;;;4.97;1.70;;;;;;;;;;4994048;28;20038;-57
2021/10/09 01:31:37;;;;;;;7.57;1.90;;;;;;;;;;4993077;28;20833;-57
2021/10/09 01:34:04;;;;;;;3.22;1.70;;;;;;;;;;4993633;28;20073;-57
2021/10/09 01:36:32;;;;;;;2.03;1.83;;;;;;;;;;4990963;28;20467;-57
2021/10/09 01:38:59;;;;;;;1.98;1.67;;;;;;;;;;4992733;28;20379;-57
2021/10/09 01:41:26;;;;;;;1.80;1.60;;;;;;;;;;4993187;28;20145;-57
2021/10/09 01:43:53;;;;;;;2.55;1.40;;;;;;;;;;4993267;28;20042;-57
2021/10/09 01:46:20;;;;;;;1.90;1.80;;;;;;;;;;4992096;28;20069;-56
2021/10/09 01:48:47;;;;;;;2.13;1.92;;;;;;;;;;4989529;28;20081;-57
2021/10/09 01:51:16;;;;;;;2.28;1.67;;;;;;;;;;4990641;28;20403;-57
2021/10/09 01:53:42;;;;;;;2.53;2.33;;;;;;;;;;4984400;28;20085;-57
2021/10/09 01:56:10;;;;;;;4.43;1.95;;;;;;;;;;4992471;28;20117;-57
2021/10/09 01:58:37;;;;;;;1.95;1.58;;;;;;;;;;4993114;28;20061;-57
2021/10/09 02:01:04;;;;;;;3.03;1.65;;;;;;;;;;4993211;28;20050;-56
2021/10/09 02:03:30;;;;;;;1.88;1.83;;;;;;;;;;4991945;28;20537;-57
2021/10/09 02:05:57;;;;;;;3.28;1.95;;;;;;;;;;4989623;28;20070;-57
2021/10/09 02:08:24;;;;;;;1.77;1.77;;;;;;;;;;4991781;28;20064;-56
2021/10/09 02:13:23;;;;;;;1.63;1.50;;;;;;;;;;4990286;28;20034;-57
2021/10/09 02:16:07;;;;;;;1.50;1.40;;;;;;;;;;4992211;28;20050;-56
2021/10/09 02:24:22;;;;;;;1.90;1.80;;;;;;;;;;4991587;28;20125;-57
2021/10/09 02:26:48;;;;;;;2.63;1.50;;;;;;;;;;4990663;28;20084;-56
2021/10/09 02:29:15;;;;;;;1.70;1.60;;;;;;;;;;4992090;28;20116;-57
2021/10/09 02:31:42;;;;;;;1.70;1.60;;;;;;;;;;4991319;28;20058;-56
2021/10/09 02:34:09;;;;;;;4.88;1.27;;;;;;;;;;4989998;28;20038;-57
2021/10/09 02:36:36;;;;;;;1.65;1.55;;;;;;;;;;4974301;28;20073;-57
2021/10/09 02:39:03;;;;;;;3.30;1.80;;;;;;;;;;4991077;28;20046;-56
2021/10/09 02:41:30;;;;;;;2.15;1.55;;;;;;;;;;4992456;28;20050;-57
2021/10/09 02:43:56;;;;;;;3.33;1.40;;;;;;;;;;4992139;28;20065;-57
2021/10/09 02:46:23;;;;;;;1.48;1.48;;;;;;;;;;4991692;28;20100;-56
2021/10/09 02:48:50;;;;;;;2.08;1.83;;;;;;;;;;4989532;28;20938;-57
2021/10/09 02:51:16;;;;;;;1.58;1.48;;;;;;;;;;4991970;28;20042;-56
2021/10/09 02:53:43;;;;;;;1.65;1.30;;;;;;;;;;4992365;28;20042;-55
2021/10/09 02:56:10;;;;;;;1.75;1.63;;;;;;;;;;4991542;28;20038;-56
2021/10/09 02:58:37;;;;;;;3.80;1.65;;;;;;;;;;4989623;28;20100;-57
2021/10/09 03:01:03;;;;;;;1.20;1.20;;;;;;;;;;4990609;28;20047;-57
2021/10/09 03:03:30;;;;;;;1.92;1.92;;;;;;;;;;4987049;28;20070;-57
2021/10/09 03:05:57;;;;;;;1.63;1.30;;;;;;;;;;4983942;28;20076;-56
2021/10/09 03:08:23;;;;;;;1.40;1.40;;;;;;;;;;4991791;28;20172;-56
2021/10/09 03:10:50;;;;;;;1.52;1.33;;;;;;;;;;4989197;28;20046;-56
2021/10/09 03:13:17;;;;;;;1.20;1.20;;;;;;;;;;4989190;28;20093;-56
2021/10/09 03:15:44;;;;;;;1.75;1.10;;;;;;;;;;4990252;28;20137;-56
2021/10/09 03:18:10;;;;;;;1.20;1.20;;;;;;;;;;4988019;28;20102;-56
2021/10/09 03:20:37;;;;;;;1.88;1.63;;;;;;;;;;4991527;28;20046;-56
2021/10/09 03:23:04;;;;;;;2.00;1.20;;;;;;;;;;4989063;28;20101;-56
2021/10/09 03:25:31;;;;;;;2.40;1.20;;;;;;;;;;4981816;28;20038;-57
2021/10/09 03:27:57;;;;;;;2.83;1.30;;;;;;;;;;4985186;28;20456;-57
2021/10/09 03:30:24;;;;;;;1.40;1.40;;;;;;;;;;4984658;28;20042;-56
2021/10/09 03:32:51;;;;;;;2.13;2.00;;;;;;;;;;4991306;28;20093;-57
2021/10/09 03:35:18;;;;;;;2.17;1.52;;;;;;;;;;4990195;28;20062;-57
2021/10/09 03:37:45;;;;;;;2.80;1.40;;;;;;;;;;4991046;28;20046;-57
2021/10/09 03:40:15;;;;;;;1.70;1.63;;;;;;;;;;4989995;28;20088;-57
2021/10/09 03:45:21;;;;;;;1.83;1.70;;;;;;;;;;4977683;28;20391;-57
2021/10/09 03:48:03;;;;;;;;;;;;;;;;;;4989351;28;20066;-57
2021/10/09 03:53:00;;;;;;;2.17;1.23;;;;;;;;;;4989702;28;20030;-57
2021/10/09 03:55:27;;;;;;;1.63;1.50;;;;;;;;;;4989287;28;20554;-57
2021/10/09 03:57:53;;;;;;;1.40;1.40;;;;;;;;;;4987978;28;20391;-56
2021/10/09 04:00:20;;;;;;;1.50;1.40;;;;;;;;;;4990215;28;20038;-57
2021/10/09 04:02:47;;;;;;;1.60;1.50;;;;;;;;;;4988640;28;20487;-56
2021/10/09 04:05:14;;;;;;;1.95;1.10;;;;;;;;;;4991533;28;20046;-57
2021/10/09 04:07:41;;;;;;;2.20;1.10;;;;;;;;;;4989685;28;20050;-57
2021/10/09 04:10:11;;;;;;;1.80;1.13;;;;;;;;;;4989172;28;20422;-58
2021/10/09 04:12:37;;;;;;;1.30;1.20;;;;;;;;;;4990575;28;20046;-57
2021/10/09 04:15:05;;;;;;;1.67;1.30;;;;;;;;;;4990098;28;20045;-57
2021/10/09 04:17:32;;;;;;;1.10;1.10;;;;;;;;;;4988455;28;20122;-57
2021/10/09 04:19:58;;;;;;;1.02;1.02;;;;;;;;;;4989579;28;20406;-57
2021/10/09 04:22:25;;;;;;;2.08;1.20;;;;;;;;;;4990221;28;20047;-57
2021/10/09 04:24:52;;;;;;;2.30;1.40;;;;;;;;;;4990244;28;20065;-57
2021/10/09 04:27:19;;;;;;;1.98;1.15;;;;;;;;;;4986763;28;20062;-57
2021/10/09 04:29:45;;;;;;;1.40;1.30;;;;;;;;;;4985818;28;20039;-58
2021/10/09 04:32:12;;;;;;;2.17;1.27;;;;;;;;;;4989568;28;20454;-57
2021/10/09 04:34:39;;;;;;;1.30;1.20;;;;;;;;;;4989194;28;20570;-58
2021/10/09 04:37:06;;;;;;;1.00;1.00;;;;;;;;;;4990450;28;20387;-58
2021/10/09 04:39:32;;;;;;;2.45;1.00;;;;;;;;;;4989263;28;20042;-57
2021/10/09 04:41:59;;;;;;;1.15;1.00;;;;;;;;;;4989350;28;20050;-57
2021/10/09 04:44:26;;;;;;;1.23;1.23;;;;;;;;;;4989647;28;20038;-57
2021/10/09 04:46:53;;;;;;;1.08;1.08;;;;;;;;;;4987345;28;20123;-57
2021/10/09 04:49:19;;;;;;;2.13;1.20;;;;;;;;;;4990441;28;20070;-57
2021/10/09 04:51:46;;;;;;;5.72;1.20;;;;;;;;;;4988768;28;20050;-57
2021/10/09 04:54:12;;;;;;;1.15;1.15;;;;;;;;;;4986233;28;20049;-57
2021/10/09 04:56:40;;;;;;;1.10;1.10;;;;;;;;;;4993009;28;20100;-58
2021/10/09 04:59:06;;;;;;;1.60;1.20;;;;;;;;;;4992866;28;20090;-57
2021/10/09 05:01:33;;;;;;;2.05;1.38;;;;;;;;;;4994047;28;20038;-57
2021/10/09 05:04:00;;;;;;;1.10;1.10;;;;;;;;;;4991287;28;20042;-58
2021/10/09 05:06:27;;;;;;;1.30;1.20;;;;;;;;;;4993444;28;20038;-58
2021/10/09 05:08:54;;;;;;;1.10;1.00;;;;;;;;;;4993485;28;20089;-57
2021/10/09 05:11:20;;;;;;;1.20;1.20;;;;;;;;;;4992307;28;20073;-57
2021/10/09 05:13:47;;;;;;;1.63;1.00;;;;;;;;;;4993496;28;20042;-57
2021/10/09 05:16:14;;;;;;;1.00;1.00;;;;;;;;;;4992951;28;20084;-57
2021/10/09 05:18:46;;;;;;;1.70;0.93;;;;;;;;;;4991701;28;20136;-57
2021/10/09 05:21:12;;;;;;;1.70;1.20;;;;;;;;;;4993366;28;20446;-57
2021/10/09 05:23:39;;;;;;;1.08;1.08;;;;;;;;;;4992461;28;20089;-57
2021/10/09 05:26:06;;;;;;;1.50;1.40;;;;;;;;;;4989417;28;20061;-57
2021/10/09 05:31:09;;;;;;;1.67;1.52;;;;;;;;;;4991630;28;20104;-57
2021/10/09 05:36:05;;;;;;;1.58;1.10;;;;;;;;;;4992293;28;20077;-57
2021/10/09 05:38:32;;;;;;;1.30;1.20;;;;;;;;;;4992612;28;20041;-57
2021/10/09 05:40:59;;;;;;;1.45;1.45;;;;;;;;;;4992185;28;20053;-57
2021/10/09 05:43:26;;;;;;;1.10;1.10;;;;;;;;;;4991896;28;20446;-58
2021/10/09 05:45:53;;;;;;;1.30;1.20;;;;;;;;;;4992943;28;20388;-57
2021/10/09 05:48:20;;;;;;;3.42;1.30;;;;;;;;;;4992154;28;20038;-58
2021/10/09 05:53:40;;;;;;;2.45;1.30;;;;;;;;;;4992541;28;20053;-58
2021/10/09 05:56:10;;;;;;;1.30;1.20;;;;;;;;;;4990159;28;20035;-57
2021/10/09 06:59:29;;;;;;;1.05;1.00;;;;;;;;;;4990142;28;20058;-57
2021/10/09 07:01:47;;;;;;;0.95;0.95;;;;;;;;;;4991683;28;20046;-56
2021/10/09 07:04:14;;;;;;;1.50;1.20;;;;;;;;;;4991131;28;20038;-57
2021/10/09 07:06:42;;;;;;;1.10;1.10;;;;;;;;;;4990656;28;20126;-63
2021/10/09 07:09:09;;;;;;;1.70;1.30;;;;;;;;;;4986546;28;20511;-63
2021/10/09 07:11:35;;;;;;;1.30;1.20;;;;;;;;;;4985077;28;20030;-63
2021/10/09 07:14:05;;;;;;;1.20;1.20;;;;;;;;;;4991475;28;20104;-63
2021/10/09 07:16:32;;;;;;;1.10;1.10;;;;;;;;;;4988230;28;20121;-63
2021/10/09 07:19:00;;;;;;;1.23;1.23;;;;;;;;;;4989441;28;20130;-62
2021/10/09 07:21:28;;;;;;;1.20;1.20;;;;;;;;;;4991723;28;20042;-63
2021/10/09 07:24:09;;;;;;;1.35;1.30;;;;;;;;;;4989511;28;20049;-62
2021/10/09 07:26:35;;;;;;;17.38;1.70;;;;;;;;;;4984223;28;20042;-62
2021/10/09 07:29:02;;;;;;;6.00;1.75;;;;;;;;;;4987287;28;20031;-63
2021/10/09 07:31:29;;;;;;;1.60;1.17;;;;;;;;;;4978641;28;20034;-61
2021/10/09 07:33:56;;;;;;;1.30;1.20;;;;;;;;;;4991480;28;20448;-62
2021/10/09 07:36:23;;;;;;;1.48;1.35;;;;;;;;;;4991766;28;20479;-62
2021/10/09 07:38:50;;;;;;;16.60;7.90;;;;;;;;;;4984722;28;20058;-61
2021/10/09 07:41:16;;;;;;;3.78;3.25;;;;;;;;;;4985832;28;20554;-62
2021/10/09 07:43:43;;;;;;;1.90;1.80;;;;;;;;;;4990352;28;20058;-63
2021/10/09 07:46:09;;;;;;;2.45;1.80;;;;;;;;;;4990286;28;20030;-62
2021/10/09 07:48:36;;;;;;;2.78;2.67;;;;;;;;;;4987992;28;20508;-61
2021/10/09 07:51:05;;;;;;;1.25;1.15;;;;;;;;;;4990603;28;20058;-62
2021/10/09 07:53:33;;;;;;;2.90;1.35;;;;;;;;;;4989822;28;20041;-62
2021/10/09 07:56:00;;;;;;;1.25;1.15;;;;;;;;;;4988136;28;20100;-63
2021/10/09 07:58:27;;;;;;;1.95;1.83;;;;;;;;;;4990551;28;20088;-62
2021/10/09 08:00:54;;;;;;;1.80;1.70;;;;;;;;;;4989455;28;20046;-62
2021/10/09 08:03:24;;;;;;;1.58;1.30;;;;;;;;;;4990087;28;20117;-61
2021/10/09 08:05:52;;;;;;;1.17;1.17;;;;;;;;;;4988562;28;20101;-61
2021/10/09 08:08:20;;;;;;;1.58;1.50;;;;;;;;;;4987733;28;20042;-61
2021/10/09 08:10:47;;;;;;;1.25;1.25;;;;;;;;;;4987812;28;20451;-62
2021/10/09 08:13:15;;;;;;;1.58;1.48;;;;;;;;;;4985312;28;20081;-62
2021/10/09 08:15:42;;;;;;;1.38;1.30;;;;;;;;;;4974111;28;20080;-62
2021/10/09 08:18:09;;;;;;;2.17;1.85;;;;;;;;;;4989838;28;20043;-62
2021/10/09 08:20:37;;;;;;;2.97;1.58;;;;;;;;;;4987358;28;20081;-61
2021/10/09 08:23:08;;;;;;;1.67;1.20;;;;;;;;;;4990380;28;20052;-59
2021/10/09 08:36:29;;;;;;;2.08;1.60;;;;;;;;;;4979524;28;20080;-61
2021/10/09 08:38:56;;;;;;;1.20;1.20;;;;;;;;;;4988655;28;20073;-60
2021/10/09 08:41:45;;;;;;;1.80;1.20;;;;;;;;;;4987111;28;20058;-62
2021/10/09 08:44:12;;;;;;;1.35;1.30;;;;;;;;;;4989852;28;20104;-61
2021/10/09 08:46:39;;;;;;;1.58;1.10;;;;;;;;;;4988692;28;20084;-61
2021/10/09 08:49:06;;;;;;;1.15;1.00;;;;;;;;;;4993836;28;20042;-62
2021/10/09 08:51:33;;;;;;;1.60;1.60;;;;;;;;;;4989451;28;20085;-62
2021/10/09 08:54:07;;;;;;;1.45;1.13;;;;;;;;;;4986939;28;20085;-61
2021/10/09 08:56:38;;;;;;;1.05;1.05;;;;;;;;;;4987359;28;20042;-61
2021/10/09 08:59:09;;;;;;;1.30;1.20;;;;;;;;;;4989455;28;20080;-61
2021/10/09 09:01:53;;;;;;;1.42;1.25;;;;;;;;;;4988973;28;20049;-62
2021/10/09 09:04:38;;;;;;;1.40;1.20;;;;;;;;;;4987233;28;20052;-61
2021/10/09 09:37:42;;;;;;;1.10;1.00;;;;;;;;;;4965056;28;20047;-61
2021/10/09 09:40:11;;;;;;;2.22;1.15;;;;;;;;;;4968278;28;20479;-62
2021/10/09 09:42:45;;;;;;;4.45;1.08;;;;;;;;;;4982762;28;20145;-62
2021/10/09 09:45:18;;;;;;;3.90;1.63;;;;;;;;;;4969258;28;20053;-62
2021/10/09 09:47:45;;;;;;;1.27;1.10;;;;;;;;;;4970682;28;20245;-62
2021/10/09 09:50:12;;;;;;;1.33;1.33;;;;;;;;;;4967987;28;20038;-62
2021/10/09 09:52:40;;;;;;;1.73;1.20;;;;;;;;;;4970014;28;20142;-63
2021/10/09 09:55:08;;;;;;;1.40;1.10;;;;;;;;;;4965024;28;20632;-61
2021/10/09 09:57:36;;;;;;;2.75;1.15;;;;;;;;;;4966964;28;20526;-62
2021/10/09 10:00:05;;;;;;;1.73;1.20;;;;;;;;;;4968423;28;20451;-61
2021/10/09 10:02:33;;;;;;;2.25;1.30;;;;;;;;;;4966979;28;20078;-61
2021/10/09 10:05:01;;;;;;;1.30;1.20;;;;;;;;;;4970983;28;20509;-62
2021/10/09 10:07:28;;;;;;;1.20;1.10;;;;;;;;;;4988540;28;20038;-57
2021/10/09 10:09:54;;;;;;;2.53;0.98;;;;;;;;;;4985304;28;20073;-57
2021/10/09 10:12:24;;;;;;;2.33;1.15;;;;;;;;;;4990445;28;20406;-56
2021/10/09 10:14:52;;;;;;;1.33;1.25;;;;;;;;;;4988910;28;20141;-57
2021/10/09 10:17:54;;;;;;;1.27;1.00;;;;;;;;;;4990697;28;20073;-57
2021/10/09 10:20:21;;;;;;;2.45;2.00;;;;;;;;;;4987753;28;20100;-57
2021/10/09 10:22:50;;;;;;;1.20;1.10;;;;;;;;;;4986813;28;20090;-57
2021/10/09 10:25:28;;;;;;;1.35;1.25;;;;;;;;;;4978486;28;20046;-56
2021/10/09 10:28:17;;;;;;;1.73;1.63;;;;;;;;;;4981257;28;20084;-57
2021/10/09 10:30:45;;;;;;;3.13;1.00;;;;;;;;;;4982036;28;20093;-57
2021/10/09 10:33:17;;;;;;;1.08;1.08;;;;;;;;;;4988827;28;20065;-56
2021/10/09 10:35:45;;;;;;;1.98;1.27;;;;;;;;;;4987691;28;20494;-57
2021/10/09 10:38:21;;;;;;;2.72;1.02;;;;;;;;;;4986289;28;20042;-57
2021/10/09 10:40:56;;;;;;;1.02;1.02;;;;;;;;;;4984446;28;20059;-57
2021/10/09 10:46:01;;;;;;;2.45;1.30;;;;;;;;;;4986404;28;20522;-61
2021/10/09 10:48:48;;;;;;;1.20;1.20;;;;;;;;;;4986389;28;20113;-58
2021/10/09 10:51:35;;;;;;;1.95;1.30;;;;;;;;;;4984515;28;20133;-59
2021/10/09 10:54:14;;;;;;;1.27;1.17;;;;;;;;;;4978342;28;20131;-60
2021/10/09 10:57:00;;;;;;;1.48;1.20;;;;;;;;;;4987878;28;20050;-60
2021/10/09 10:59:29;;;;;;;2.50;1.10;;;;;;;;;;4985080;28;20050;-59
2021/10/09 11:02:16;;;;;;;3.75;1.70;;;;;;;;;;5002983;28;20046;-60
2021/10/09 11:04:45;;;;;;;1.10;1.00;;;;;;;;;;4982832;28;20511;-60
2021/10/09 11:07:12;;;;;;;6.55;2.20;;;;;;;;;;4983000;28;20569;-60
2021/10/09 11:09:39;;;;;;;1.65;1.20;;;;;;;;;;4992458;28;20035;-60
2021/10/09 11:12:23;;;;;;;1.52;1.35;;;;;;;;;;4987961;28;20042;-60
2021/10/09 11:14:51;;;;;;;1.63;1.52;;;;;;;;;;4981413;28;20450;-59
2021/10/09 11:17:18;;;;;;;2.38;2.03;;;;;;;;;;4990143;28;20043;-60
2021/10/09 11:19:49;;;;;;;3.30;1.40;;;;;;;;;;4984891;28;20375;-60
2021/10/09 11:22:17;;;;;;;3.65;1.27;;;;;;;;;;4978259;28;20085;-60
2021/10/09 11:24:51;;;;;;;1.63;1.30;;;;;;;;;;4989177;28;20100;-60
2021/10/09 11:27:19;;;;;;;2.55;1.08;;;;;;;;;;4985058;28;20145;-60
2021/10/09 11:30:04;;;;;;;12.52;11.50;;;;;;;;;;4989590;28;20510;-60
2021/10/09 11:32:32;;;;;;;1.45;1.35;;;;;;;;;;4985890;28;20039;-60
2021/10/09 11:34:59;;;;;;;1.40;1.20;;;;;;;;;;4988913;28;20094;-60
2021/10/09 11:37:26;;;;;;;3.03;1.00;;;;;;;;;;4990781;28;20490;-60
2021/10/09 11:39:56;;;;;;;1.00;1.00;;;;;;;;;;4990961;28;20042;-60
2021/10/09 11:42:26;;;;;;;1.52;1.35;;;;;;;;;;4977996;28;20059;-60
2021/10/09 11:53:38;;;;;;;2.08;1.27;;;;;;;;;;4990597;28;20030;-61
2021/10/09 11:56:07;;;;;;;1.98;1.88;;;;;;;;;;4981271;28;20081;-60
2021/10/09 11:59:06;;;;;;;3.95;1.33;;;;;;;;;;4989743;28;20483;-61
2021/10/09 12:01:36;;;;;;;1.67;1.50;;;;;;;;;;4949838;28;20086;-60
2021/10/09 12:04:15;;;;;;;1.98;1.05;;;;;;;;;;4948710;28;20049;-60
2021/10/09 12:06:43;;;;;;;3.30;2.50;;;;;;;;;;4946442;28;20154;-60
2021/10/09 12:09:10;;;;;;;3.60;1.30;;;;;;;;;;4945992;28;20570;-61
2021/10/09 12:11:37;;;;;;;6.82;1.88;;;;;;;;;;4937982;28;20043;-60
2021/10/09 12:14:05;;;;;;;2.63;2.53;;;;;;;;;;4961523;28;20451;-49
2021/10/09 12:16:41;;;;;;;4.75;2.15;;;;;;;;;;4951910;28;20484;-44
2021/10/09 12:19:09;;;;;;;2.50;1.75;;;;;;;;;;4936491;28;20043;-49
2021/10/09 12:21:39;;;;;;;1.67;1.45;;;;;;;;;;4949637;28;20035;-45
2021/10/09 12:24:12;;;;;;;3.00;1.55;;;;;;;;;;4952819;28;20349;-46
2021/10/09 12:26:39;;;;;;;1.10;1.10;;;;;;;;;;4959931;28;20121;-48
2021/10/09 12:29:08;;;;;;;1.95;1.85;;;;;;;;;;4946403;28;20122;-48
2021/10/09 12:31:36;;;;;;;2.85;1.15;;;;;;;;;;4947368;28;20074;-49
2021/10/09 12:34:03;;;;;;;4.10;1.40;;;;;;;;;;4945214;28;20039;-50
2021/10/09 12:36:41;;;;;;;1.20;1.20;;;;;;;;;;4948678;28;20428;-50
2021/10/09 12:39:21;;;;;;;1.48;1.10;;;;;;;;;;4981724;28;20055;-49
2021/10/09 12:41:52;;;;;;;5.05;1.23;;;;;;;;;;4984795;28;20050;-49
2021/10/09 12:44:19;;;;;;;1.30;1.20;;;;;;;;;;4979082;28;20043;-47
2021/10/09 12:46:46;;;;;;;2.45;1.58;;;;;;;;;;4988648;28;20133;-47
2021/10/09 12:49:13;;;;;;;2.35;1.20;;;;;;;;;;4988601;28;20069;-46
2021/10/09 12:51:40;;;;;;;1.48;1.23;;;;;;;;;;4990262;28;20085;-46
2021/10/09 12:54:07;;;;;;;1.90;1.23;;;;;;;;;;4989266;28;20062;-48
2021/10/09 12:56:35;;;;;;;4.47;2.25;;;;;;;;;;4981516;28;20069;-49
2021/10/09 12:59:02;;;;;;;2.00;1.90;;;;;;;;;;4975444;28;20124;-44
2021/10/09 13:01:29;;;;;;;2.42;2.22;;;;;;;;;;4987757;28;20034;-45
2021/10/09 13:03:57;;;;;;;2.90;1.40;;;;;;;;;;4982114;28;20042;-48
2021/10/09 13:06:23;;;;;;;1.30;1.20;;;;;;;;;;4981885;28;20062;-45
2021/10/09 13:08:50;;;;;;;4.40;1.60;;;;;;;;;;4980106;28;20055;-48
2021/10/09 13:11:23;;;;;;;2.47;1.70;;;;;;;;;;4985782;28;20076;-44
2021/10/09 13:13:49;;;;;;;2.85;2.00;;;;;;;;;;4987866;28;20058;-48
2021/10/09 13:16:16;;;;;;;3.33;3.10;;;;;;;;;;4988055;28;20043;-46
2021/10/09 13:18:43;;;;;;;7.10;3.72;;;;;;;;;;4985335;28;20123;-49
2021/10/09 13:21:13;;;;;;;5.55;1.90;;;;;;;;;;4990504;28;20081;-49
2021/10/09 13:23:40;;;;;;;2.45;2.05;;;;;;;;;;4992366;28;20097;-49
2021/10/09 13:26:07;;;;;;;2.28;1.85;;;;;;;;;;4989311;28;20443;-48
2021/10/09 13:28:37;;;;;;;1.50;1.50;;;;;;;;;;4983435;28;20053;-48
2021/10/09 13:31:04;;;;;;;3.67;1.73;;;;;;;;;;4983362;28;20042;-46
2021/10/09 13:33:31;;;;;;;7.93;1.70;;;;;;;;;;4988167;28;20502;-48
2021/10/09 13:35:58;;;;;;;1.50;1.50;;;;;;;;;;4980890;28;20126;-46
2021/10/09 13:38:30;;;;;;;5.68;1.45;;;;;;;;;;4986195;28;20097;-47
2021/10/09 13:40:56;;;;;;;1.90;1.60;;;;;;;;;;4985003;28;20076;-46
2021/10/09 13:43:23;;;;;;;3.00;1.40;;;;;;;;;;4987294;28;20093;-46
2021/10/09 13:45:50;;;;;;;2.20;1.73;;;;;;;;;;4991978;28;20480;-45
2021/10/09 13:48:17;;;;;;;4.63;2.05;;;;;;;;;;4991488;28;20038;-45
2021/10/09 13:50:47;;;;;;;1.73;1.63;;;;;;;;;;4991400;28;20350;-46
2021/10/09 13:53:14;;;;;;;2.83;1.50;;;;;;;;;;4992541;28;20085;-48
2021/10/09 13:55:42;;;;;;;2.15;1.95;;;;;;;;;;4992914;28;20080;-45
2021/10/09 13:58:10;;;;;;;2.08;1.63;;;;;;;;;;4990254;28;20863;-48
2021/10/09 14:00:37;;;;;;;3.90;1.90;;;;;;;;;;4986979;28;20426;-45
2021/10/09 14:03:04;;;;;;;3.42;1.50;;;;;;;;;;4988748;28;20042;-44
2021/10/09 14:05:32;;;;;;;2.05;1.50;;;;;;;;;;4991213;28;20058;-45
2021/10/09 14:07:59;;;;;;;2.40;2.30;;;;;;;;;;4992445;28;20027;-48
2021/10/09 14:10:26;;;;;;;1.95;1.77;;;;;;;;;;4991598;28;20092;-45
2021/10/09 14:12:53;;;;;;;1.92;1.58;;;;;;;;;;4990312;28;20046;-47
2021/10/09 14:15:20;;;;;;;1.45;1.35;;;;;;;;;;4990981;28;20114;-46
2021/10/09 14:17:46;;;;;;;4.05;2.08;;;;;;;;;;5018898;28;20070;-49
2021/10/09 14:20:13;;;;;;;2.65;2.45;;;;;;;;;;4983664;28;20109;-48
2021/10/09 14:22:40;;;;;;;2.55;1.30;;;;;;;;;;4990626;28;20626;-46
2021/10/09 14:25:09;;;;;;;1.80;1.70;;;;;;;;;;4984986;28;20053;-47
2021/10/09 14:27:35;;;;;;;2.65;1.40;;;;;;;;;;5013864;28;20126;-45
2021/10/09 14:30:03;;;;;;;1.48;1.40;;;;;;;;;;4979213;28;20541;-48
2021/10/09 14:32:30;;;;;;;2.97;1.48;;;;;;;;;;4990829;28;20046;-48
2021/10/09 14:34:56;;;;;;;4.78;3.00;;;;;;;;;;4986393;28;20121;-46
2021/10/09 14:37:23;;;;;;;2.67;1.63;;;;;;;;;;4995697;28;20053;-48
2021/10/09 14:39:50;;;;;;;2.65;1.52;;;;;;;;;;4990799;28;20046;-49
2021/10/09 14:42:17;;;;;;;3.60;1.85;;;;;;;;;;4989170;28;21009;-45
2021/10/09 14:44:45;;;;;;;5.57;5.00;;;;;;;;;;4989255;28;20049;-49
2021/10/09 14:47:59;;;;;;;3.45;3.15;;;;;;;;;;4987631;28;20066;-46
2021/10/09 14:50:16;;;;;;;1.42;1.30;;;;;;;;;;4990405;28;20073;-45
2021/10/09 15:20:07;;;;;;;1.23;1.17;;;;;;;;;;4985437;28;20039;-46
2021/10/09 15:22:34;;;;;;;2.53;2.42;;;;;;;;;;4986330;28;20093;-47
2021/10/09 15:25:01;;;;;;;3.60;3.38;;;;;;;;;;4992781;28;20042;-46
2021/10/09 15:27:29;;;;;;;4.05;1.42;;;;;;;;;;4985970;28;20117;-45
2021/10/09 15:29:56;;;;;;;1.52;1.42;;;;;;;;;;4990680;28;20442;-48
2021/10/09 15:32:23;;;;;;;5.18;4.78;;;;;;;;;;4988389;28;20431;-46
2021/10/09 15:34:50;;;;;;;5.95;4.30;;;;;;;;;;4988763;28;20801;-44
2021/10/09 15:37:17;;;;;;;3.15;2.90;;;;;;;;;;4988995;28;20061;-46
2021/10/09 15:39:44;;;;;;;5.07;4.60;;;;;;;;;;4990045;28;20498;-43
2021/10/09 15:42:11;;;;;;;3.05;2.90;;;;;;;;;;4989411;28;20050;-44
2021/10/09 15:44:38;;;;;;;3.03;2.60;;;;;;;;;;4984994;28;20050;-48
2021/10/09 15:47:05;;;;;;;11.55;8.77;;;;;;;;;;4985417;28;20050;-47
2021/10/09 15:49:31;;;;;;;7.60;5.53;;;;;;;;;;4979262;28;20039;-45
2021/10/09 15:51:58;;;;;;;6.15;1.85;;;;;;;;;;4984661;28;20533;-48
2021/10/09 15:54:25;;;;;;;2.65;1.90;;;;;;;;;;4987615;28;20068;-48
2021/10/09 15:56:52;;;;;;;4.18;2.58;;;;;;;;;;4981646;28;20502;-57
2021/10/09 15:59:18;;;;;;;2.17;1.40;;;;;;;;;;4999105;28;20545;-43
2021/10/09 16:01:45;;;;;;;2.08;1.92;;;;;;;;;;4988507;28;20046;-45
2021/10/09 16:04:12;;;;;;;4.25;3.35;;;;;;;;;;4988487;28;20743;-47
2021/10/09 16:06:39;;;;;;;2.78;1.98;;;;;;;;;;4992508;28;20069;-45
2021/10/09 16:09:06;;;;;;;1.67;1.55;;;;;;;;;;4985484;28;20071;-43
2021/10/09 16:11:33;;;;;;;1.60;1.48;;;;;;;;;;4986436;28;20479;-44
2021/10/09 16:14:06;;;;;;;2.80;2.60;;;;;;;;;;4997728;28;20042;-43
2021/10/09 16:16:34;;;;;;;2.33;2.22;;;;;;;;;;4988251;28;20101;-44
2021/10/09 16:19:01;;;;;;;4.68;2.25;;;;;;;;;;4987562;28;20049;-48
2021/10/09 16:21:28;;;;;;;2.30;2.20;;;;;;;;;;4986642;28;20045;-46
2021/10/09 16:23:54;;;;;;;2.40;2.20;;;;;;;;;;4988195;28;20042;-44
2021/10/09 16:26:21;;;;;;;2.00;1.90;;;;;;;;;;4993198;28;20046;-45
2021/10/09 16:28:50;;;;;;;2.53;2.28;;;;;;;;;;4987546;28;20601;-45
2021/10/09 16:31:17;;;;;;;2.15;2.05;;;;;;;;;;4986223;28;20069;-44
2021/10/09 16:33:44;;;;;;;3.65;1.75;;;;;;;;;;4985584;28;20061;-44
2021/10/09 16:36:11;;;;;;;1.80;1.70;;;;;;;;;;4982001;28;20434;-44
2021/10/09 16:38:37;;;;;;;2.65;2.08;;;;;;;;;;4989146;28;20113;-45
2021/10/09 16:41:04;;;;;;;2.05;1.95;;;;;;;;;;4986737;28;20046;-47
2021/10/09 16:43:30;;;;;;;1.85;1.80;;;;;;;;;;4990117;28;20077;-43
2021/10/09 16:45:57;;;;;;;3.53;2.10;;;;;;;;;;4985426;28;20112;-46
2021/10/09 16:48:24;;;;;;;2.92;1.85;;;;;;;;;;4985177;28;20034;-45
2021/10/09 16:50:51;;;;;;;2.83;2.72;;;;;;;;;;4992454;28;20054;-45
2021/10/09 16:53:17;;;;;;;2.05;1.95;;;;;;;;;;4992149;28;20043;-44
2021/10/09 16:55:44;;;;;;;4.07;2.17;;;;;;;;;;4978271;28;20039;-45
2021/10/09 16:58:11;;;;;;;4.53;1.98;;;;;;;;;;4991086;28;20093;-44
2021/10/09 17:00:38;;;;;;;2.50;2.40;;;;;;;;;;4992779;28;20077;-46
2021/10/09 17:03:05;;;;;;;4.03;3.47;;;;;;;;;;4993119;28;20777;-47
2021/10/09 17:05:31;;;;;;;5.95;2.58;;;;;;;;;;4991633;28;20046;-47
2021/10/09 17:07:58;;;;;;;2.90;2.60;;;;;;;;;;4992606;28;20626;-45
2021/10/09 17:10:25;;;;;;;1.63;1.45;;;;;;;;;;4994228;28;20046;-48
2021/10/09 17:12:52;;;;;;;2.50;2.22;;;;;;;;;;4992459;28;20034;-47
2021/10/09 17:15:18;;;;;;;1.80;1.40;;;;;;;;;;4993157;28;20515;-46
2021/10/09 17:17:45;;;;;;;1.95;1.45;;;;;;;;;;4990081;28;20039;-44
2021/10/09 17:20:12;;;;;;;1.85;1.85;;;;;;;;;;4990729;28;20046;-45
2021/10/09 17:22:39;;;;;;;2.55;2.35;;;;;;;;;;4992745;28;20089;-45
2021/10/09 17:25:06;;;;;;;2.00;2.00;;;;;;;;;;4991662;28;20046;-47
2021/10/09 17:27:33;;;;;;;2.28;2.17;;;;;;;;;;4992540;28;20121;-46
2021/10/09 17:29:59;;;;;;;2.30;1.63;;;;;;;;;;4989836;28;20034;-45
2021/10/09 17:32:26;;;;;;;1.50;1.50;;;;;;;;;;4989141;28;20058;-47